NH17 weather

Zim Airport
Mason, New Hampshire, United States

Public forecast

Using degrees Fahrenheit for public forecast. Weather courtesy of forecast.io.

METAR (pilot weather report)

Closest report is Boire Field, 9.5 nm (17.6 km) ENE. Retrieved 2019/07/20 01:56 UTC (12 minutes ago):

KASH 200156Z AUTO VRB03KT 10SM CLR 28/26 A2979 RMK AO2 SLP090 T02780256

TAF (pilot weather forecast)

Forecast is more than 12 hours old.

Closest forecast is Manchester-Boston Regional Airport, 17.5 nm (32.4 km) NE. Retrieved 2019/07/19 00:21 UTC (1 day ago):

TAF KMHT 192320Z 2000/2024 24005KT P6SM FEW250